sensor_id;sensor_type;location;lat;lon;timestamp;P1;durP1;ratioP1;P2;durP2;ratioP2
20391;SDS011;10355;53.688;10.078;2023-09-07T00:00:09;4.20;;;3.13;;
20391;SDS011;10355;53.688;10.078;2023-09-07T00:02:52;5.53;;;3.08;;
20391;SDS011;10355;53.688;10.078;2023-09-07T00:05:36;5.70;;;3.38;;
20391;SDS011;10355;53.688;10.078;2023-09-07T00:08:18;5.63;;;3.20;;
20391;SDS011;10355;53.688;10.078;2023-09-07T00:11:04;4.22;;;3.15;;
20391;SDS011;10355;53.688;10.078;2023-09-07T00:13:48;4.45;;;2.90;;
20391;SDS011;10355;53.688;10.078;2023-09-07T00:16:31;6.25;;;3.30;;
20391;SDS011;10355;53.688;10.078;2023-09-07T00:19:15;5.20;;;2.90;;
20391;SDS011;10355;53.688;10.078;2023-09-07T00:21:58;3.47;;;2.80;;
20391;SDS011;10355;53.688;10.078;2023-09-07T00:24:41;5.55;;;3.10;;
20391;SDS011;10355;53.688;10.078;2023-09-07T00:27:23;5.10;;;3.05;;
20391;SDS011;10355;53.688;10.078;2023-09-07T00:30:08;5.82;;;2.63;;
20391;SDS011;10355;53.688;10.078;2023-09-07T00:32:51;5.90;;;3.05;;
20391;SDS011;10355;53.688;10.078;2023-09-07T00:35:34;4.10;;;2.97;;
20391;SDS011;10355;53.688;10.078;2023-09-07T00:38:16;4.53;;;2.85;;
20391;SDS011;10355;53.688;10.078;2023-09-07T00:40:59;3.78;;;2.63;;
20391;SDS011;10355;53.688;10.078;2023-09-07T00:43:42;3.05;;;2.40;;
20391;SDS011;10355;53.688;10.078;2023-09-07T00:46:26;4.65;;;2.45;;
20391;SDS011;10355;53.688;10.078;2023-09-07T00:49:09;4.13;;;2.67;;
20391;SDS011;10355;53.688;10.078;2023-09-07T00:51:52;3.55;;;2.65;;
20391;SDS011;10355;53.688;10.078;2023-09-07T00:54:35;3.20;;;2.50;;
20391;SDS011;10355;53.688;10.078;2023-09-07T00:57:19;4.25;;;2.97;;
20391;SDS011;10355;53.688;10.078;2023-09-07T01:00:02;4.18;;;2.70;;
20391;SDS011;10355;53.688;10.078;2023-09-07T01:02:46;3.22;;;2.38;;
20391;SDS011;10355;53.688;10.078;2023-09-07T01:05:31;3.92;;;2.50;;
20391;SDS011;10355;53.688;10.078;2023-09-07T01:08:15;3.33;;;2.47;;
20391;SDS011;10355;53.688;10.078;2023-09-07T01:11:01;3.95;;;2.58;;
20391;SDS011;10355;53.688;10.078;2023-09-07T01:13:44;3.15;;;2.28;;
20391;SDS011;10355;53.688;10.078;2023-09-07T01:16:27;3.40;;;2.55;;
20391;SDS011;10355;53.688;10.078;2023-09-07T01:19:12;3.33;;;2.38;;
20391;SDS011;10355;53.688;10.078;2023-09-07T01:21:56;4.80;;;2.42;;
20391;SDS011;10355;53.688;10.078;2023-09-07T01:24:39;3.92;;;2.42;;
20391;SDS011;10355;53.688;10.078;2023-09-07T01:27:22;4.88;;;2.40;;
20391;SDS011;10355;53.688;10.078;2023-09-07T01:30:05;3.85;;;2.33;;
20391;SDS011;10355;53.688;10.078;2023-09-07T01:32:48;4.00;;;2.40;;
20391;SDS011;10355;53.688;10.078;2023-09-07T01:35:31;5.18;;;2.70;;
20391;SDS011;10355;53.688;10.078;2023-09-07T01:38:16;2.97;;;2.30;;
20391;SDS011;10355;53.688;10.078;2023-09-07T01:40:59;3.45;;;2.30;;
20391;SDS011;10355;53.688;10.078;2023-09-07T01:43:42;2.80;;;2.20;;
20391;SDS011;10355;53.688;10.078;2023-09-07T01:46:25;3.28;;;2.60;;
20391;SDS011;10355;53.688;10.078;2023-09-07T01:49:08;4.88;;;2.70;;
20391;SDS011;10355;53.688;10.078;2023-09-07T01:51:51;4.05;;;2.90;;
20391;SDS011;10355;53.688;10.078;2023-09-07T01:54:36;5.30;;;2.75;;
20391;SDS011;10355;53.688;10.078;2023-09-07T01:57:19;3.22;;;2.55;;
20391;SDS011;10355;53.688;10.078;2023-09-07T02:00:01;3.97;;;2.50;;
20391;SDS011;10355;53.688;10.078;2023-09-07T02:02:53;3.85;;;2.80;;
20391;SDS011;10355;53.688;10.078;2023-09-07T02:05:36;3.95;;;2.58;;
20391;SDS011;10355;53.688;10.078;2023-09-07T02:08:19;4.50;;;2.60;;
20391;SDS011;10355;53.688;10.078;2023-09-07T02:11:03;4.95;;;2.80;;
20391;SDS011;10355;53.688;10.078;2023-09-07T02:13:47;4.10;;;2.60;;
20391;SDS011;10355;53.688;10.078;2023-09-07T02:16:30;3.78;;;2.28;;
20391;SDS011;10355;53.688;10.078;2023-09-07T02:19:13;3.72;;;2.58;;
20391;SDS011;10355;53.688;10.078;2023-09-07T02:21:57;5.15;;;2.53;;
20391;SDS011;10355;53.688;10.078;2023-09-07T02:24:40;2.50;;;2.30;;
20391;SDS011;10355;53.688;10.078;2023-09-07T02:27:24;4.55;;;2.63;;
20391;SDS011;10355;53.688;10.078;2023-09-07T02:30:07;3.45;;;2.53;;
20391;SDS011;10355;53.688;10.078;2023-09-07T02:32:50;2.60;;;2.40;;
20391;SDS011;10355;53.688;10.078;2023-09-07T02:35:36;3.75;;;2.80;;
20391;SDS011;10355;53.688;10.078;2023-09-07T02:38:19;3.08;;;2.58;;
20391;SDS011;10355;53.688;10.078;2023-09-07T02:41:02;4.55;;;2.60;;
20391;SDS011;10355;53.688;10.078;2023-09-07T02:43:46;5.40;;;3.20;;
20391;SDS011;10355;53.688;10.078;2023-09-07T02:46:32;5.97;;;3.05;;
20391;SDS011;10355;53.688;10.078;2023-09-07T02:49:14;4.15;;;3.20;;
20391;SDS011;10355;53.688;10.078;2023-09-07T02:51:57;4.45;;;3.03;;
20391;SDS011;10355;53.688;10.078;2023-09-07T02:54:41;4.35;;;3.15;;
20391;SDS011;10355;53.688;10.078;2023-09-07T02:57:24;6.03;;;3.30;;
20391;SDS011;10355;53.688;10.078;2023-09-07T03:00:09;4.13;;;3.42;;
20391;SDS011;10355;53.688;10.078;2023-09-07T03:02:53;3.55;;;3.20;;
20391;SDS011;10355;53.688;10.078;2023-09-07T03:05:35;4.72;;;3.45;;
20391;SDS011;10355;53.688;10.078;2023-09-07T03:08:18;3.72;;;3.17;;
20391;SDS011;10355;53.688;10.078;2023-09-07T03:11:02;6.25;;;3.70;;
20391;SDS011;10355;53.688;10.078;2023-09-07T03:13:45;4.28;;;3.33;;
20391;SDS011;10355;53.688;10.078;2023-09-07T03:16:30;6.40;;;3.53;;
20391;SDS011;10355;53.688;10.078;2023-09-07T03:19:13;4.45;;;3.40;;
20391;SDS011;10355;53.688;10.078;2023-09-07T03:21:56;5.90;;;3.70;;
20391;SDS011;10355;53.688;10.078;2023-09-07T03:24:40;7.15;;;3.67;;
20391;SDS011;10355;53.688;10.078;2023-09-07T03:27:23;4.57;;;3.50;;
20391;SDS011;10355;53.688;10.078;2023-09-07T03:30:06;5.63;;;3.38;;
20391;SDS011;10355;53.688;10.078;2023-09-07T03:32:51;4.03;;;3.40;;
20391;SDS011;10355;53.688;10.078;2023-09-07T03:35:34;4.35;;;3.30;;
20391;SDS011;10355;53.688;10.078;2023-09-07T03:38:18;3.85;;;3.30;;
20391;SDS011;10355;53.688;10.078;2023-09-07T03:41:01;4.18;;;3.15;;
20391;SDS011;10355;53.688;10.078;2023-09-07T03:43:43;6.43;;;3.42;;
20391;SDS011;10355;53.688;10.078;2023-09-07T03:46:27;4.47;;;3.55;;
20391;SDS011;10355;53.688;10.078;2023-09-07T03:49:11;3.72;;;2.97;;
20391;SDS011;10355;53.688;10.078;2023-09-07T03:51:54;3.70;;;2.50;;
20391;SDS011;10355;53.688;10.078;2023-09-07T03:54:37;4.00;;;2.78;;
20391;SDS011;10355;53.688;10.078;2023-09-07T03:57:20;4.80;;;2.88;;
20391;SDS011;10355;53.688;10.078;2023-09-07T04:00:03;3.45;;;2.80;;
20391;SDS011;10355;53.688;10.078;2023-09-07T04:02:58;3.97;;;2.75;;
20391;SDS011;10355;53.688;10.078;2023-09-07T04:05:45;3.28;;;2.55;;
20391;SDS011;10355;53.688;10.078;2023-09-07T04:08:28;4.03;;;2.75;;
20391;SDS011;10355;53.688;10.078;2023-09-07T04:11:11;3.60;;;2.85;;
20391;SDS011;10355;53.688;10.078;2023-09-07T04:13:54;4.32;;;3.17;;
20391;SDS011;10355;53.688;10.078;2023-09-07T04:16:37;5.00;;;3.60;;
20391;SDS011;10355;53.688;10.078;2023-09-07T04:19:24;4.13;;;3.15;;
20391;SDS011;10355;53.688;10.078;2023-09-07T04:22:08;5.78;;;3.50;;
20391;SDS011;10355;53.688;10.078;2023-09-07T04:24:51;4.53;;;3.40;;
20391;SDS011;10355;53.688;10.078;2023-09-07T04:27:34;5.97;;;3.33;;
20391;SDS011;10355;53.688;10.078;2023-09-07T04:30:19;8.32;;;3.15;;
20391;SDS011;10355;53.688;10.078;2023-09-07T04:33:02;7.28;;;2.95;;
20391;SDS011;10355;53.688;10.078;2023-09-07T04:35:45;5.53;;;3.20;;
20391;SDS011;10355;53.688;10.078;2023-09-07T04:38:29;4.82;;;3.67;;
20391;SDS011;10355;53.688;10.078;2023-09-07T04:41:12;5.78;;;3.47;;
20391;SDS011;10355;53.688;10.078;2023-09-07T04:43:56;4.05;;;3.20;;
20391;SDS011;10355;53.688;10.078;2023-09-07T04:46:39;4.60;;;3.53;;
20391;SDS011;10355;53.688;10.078;2023-09-07T04:49:22;4.82;;;3.20;;
20391;SDS011;10355;53.688;10.078;2023-09-07T04:52:05;4.72;;;3.80;;
20391;SDS011;10355;53.688;10.078;2023-09-07T04:54:49;5.22;;;3.28;;
20391;SDS011;10355;53.688;10.078;2023-09-07T04:57:33;4.63;;;3.13;;
20391;SDS011;10355;53.688;10.078;2023-09-07T05:00:16;3.85;;;3.42;;
20391;SDS011;10355;53.688;10.078;2023-09-07T05:03:00;4.75;;;3.25;;
20391;SDS011;10355;53.688;10.078;2023-09-07T05:05:44;4.28;;;3.45;;
20391;SDS011;10355;53.688;10.078;2023-09-07T05:08:27;4.63;;;3.50;;
20391;SDS011;10355;53.688;10.078;2023-09-07T05:11:12;5.05;;;3.80;;
20391;SDS011;10355;53.688;10.078;2023-09-07T05:13:55;5.10;;;3.30;;
20391;SDS011;10355;53.688;10.078;2023-09-07T05:16:37;4.45;;;3.55;;
20391;SDS011;10355;53.688;10.078;2023-09-07T05:19:21;5.53;;;3.50;;
20391;SDS011;10355;53.688;10.078;2023-09-07T05:22:04;5.35;;;3.50;;
20391;SDS011;10355;53.688;10.078;2023-09-07T05:24:47;4.75;;;3.40;;
20391;SDS011;10355;53.688;10.078;2023-09-07T05:27:33;5.55;;;3.50;;
20391;SDS011;10355;53.688;10.078;2023-09-07T05:30:16;5.18;;;3.50;;
20391;SDS011;10355;53.688;10.078;2023-09-07T05:32:59;4.22;;;3.40;;
20391;SDS011;10355;53.688;10.078;2023-09-07T05:35:42;4.72;;;3.70;;
20391;SDS011;10355;53.688;10.078;2023-09-07T05:38:25;5.22;;;3.90;;
20391;SDS011;10355;53.688;10.078;2023-09-07T05:41:10;5.63;;;3.58;;
20391;SDS011;10355;53.688;10.078;2023-09-07T05:43:54;4.60;;;3.50;;
20391;SDS011;10355;53.688;10.078;2023-09-07T05:46:37;4.55;;;3.50;;
20391;SDS011;10355;53.688;10.078;2023-09-07T05:49:20;4.93;;;3.45;;
20391;SDS011;10355;53.688;10.078;2023-09-07T05:52:03;5.55;;;3.42;;
20391;SDS011;10355;53.688;10.078;2023-09-07T05:54:50;4.20;;;3.65;;
20391;SDS011;10355;53.688;10.078;2023-09-07T05:57:33;4.20;;;3.58;;
20391;SDS011;10355;53.688;10.078;2023-09-07T06:00:17;6.05;;;3.45;;
20391;SDS011;10355;53.688;10.078;2023-09-07T06:03:00;4.32;;;3.22;;
20391;SDS011;10355;53.688;10.078;2023-09-07T06:05:44;6.95;;;3.85;;
20391;SDS011;10355;53.688;10.078;2023-09-07T06:08:26;4.88;;;3.53;;
20391;SDS011;10355;53.688;10.078;2023-09-07T06:11:09;5.38;;;3.90;;
20391;SDS011;10355;53.688;10.078;2023-09-07T06:13:52;4.85;;;3.72;;
20391;SDS011;10355;53.688;10.078;2023-09-07T06:16:36;4.82;;;3.40;;
20391;SDS011;10355;53.688;10.078;2023-09-07T06:19:19;5.45;;;3.40;;
20391;SDS011;10355;53.688;10.078;2023-09-07T06:22:02;4.88;;;3.53;;
20391;SDS011;10355;53.688;10.078;2023-09-07T06:24:45;5.45;;;3.85;;
20391;SDS011;10355;53.688;10.078;2023-09-07T06:27:28;5.18;;;3.42;;
20391;SDS011;10355;53.688;10.078;2023-09-07T06:30:11;4.65;;;3.45;;
20391;SDS011;10355;53.688;10.078;2023-09-07T06:32:56;5.75;;;3.85;;
20391;SDS011;10355;53.688;10.078;2023-09-07T06:35:40;6.13;;;3.40;;
20391;SDS011;10355;53.688;10.078;2023-09-07T06:38:23;4.95;;;3.70;;
20391;SDS011;10355;53.688;10.078;2023-09-07T06:41:06;5.95;;;3.90;;
20391;SDS011;10355;53.688;10.078;2023-09-07T06:43:51;4.60;;;3.67;;
20391;SDS011;10355;53.688;10.078;2023-09-07T06:46:34;5.47;;;3.38;;
20391;SDS011;10355;53.688;10.078;2023-09-07T06:49:18;5.80;;;3.55;;
20391;SDS011;10355;53.688;10.078;2023-09-07T06:52:01;5.88;;;3.65;;
20391;SDS011;10355;53.688;10.078;2023-09-07T06:54:44;5.13;;;3.53;;
20391;SDS011;10355;53.688;10.078;2023-09-07T06:57:27;5.35;;;3.60;;
20391;SDS011;10355;53.688;10.078;2023-09-07T07:00:10;7.30;;;4.05;;
20391;SDS011;10355;53.688;10.078;2023-09-07T07:02:54;6.97;;;3.70;;
20391;SDS011;10355;53.688;10.078;2023-09-07T07:05:41;5.55;;;3.85;;
20391;SDS011;10355;53.688;10.078;2023-09-07T07:08:23;5.97;;;3.75;;
20391;SDS011;10355;53.688;10.078;2023-09-07T07:11:06;6.03;;;3.78;;
20391;SDS011;10355;53.688;10.078;2023-09-07T07:13:50;5.68;;;3.65;;
20391;SDS011;10355;53.688;10.078;2023-09-07T07:16:32;5.43;;;3.22;;
20391;SDS011;10355;53.688;10.078;2023-09-07T07:19:15;4.75;;;3.60;;
20391;SDS011;10355;53.688;10.078;2023-09-07T07:21:59;5.28;;;3.15;;
20391;SDS011;10355;53.688;10.078;2023-09-07T07:24:43;6.60;;;3.60;;
20391;SDS011;10355;53.688;10.078;2023-09-07T07:27:26;5.22;;;3.50;;
20391;SDS011;10355;53.688;10.078;2023-09-07T07:30:09;5.47;;;3.17;;
20391;SDS011;10355;53.688;10.078;2023-09-07T07:32:56;4.22;;;3.33;;
20391;SDS011;10355;53.688;10.078;2023-09-07T07:35:39;4.95;;;3.55;;
20391;SDS011;10355;53.688;10.078;2023-09-07T07:38:23;5.85;;;3.38;;
20391;SDS011;10355;53.688;10.078;2023-09-07T07:41:06;5.50;;;3.72;;
20391;SDS011;10355;53.688;10.078;2023-09-07T07:43:49;5.05;;;3.50;;
20391;SDS011;10355;53.688;10.078;2023-09-07T07:46:31;5.40;;;3.28;;
20391;SDS011;10355;53.688;10.078;2023-09-07T07:49:14;5.00;;;3.78;;
20391;SDS011;10355;53.688;10.078;2023-09-07T07:51:58;8.88;;;3.50;;
20391;SDS011;10355;53.688;10.078;2023-09-07T07:54:43;4.65;;;3.33;;
20391;SDS011;10355;53.688;10.078;2023-09-07T07:57:25;5.03;;;3.63;;
20391;SDS011;10355;53.688;10.078;2023-09-07T08:00:09;5.32;;;3.60;;
20391;SDS011;10355;53.688;10.078;2023-09-07T08:02:59;4.88;;;3.65;;
20391;SDS011;10355;53.688;10.078;2023-09-07T08:05:44;4.22;;;3.25;;
20391;SDS011;10355;53.688;10.078;2023-09-07T08:08:26;5.05;;;3.40;;
20391;SDS011;10355;53.688;10.078;2023-09-07T08:11:11;6.65;;;3.58;;
20391;SDS011;10355;53.688;10.078;2023-09-07T08:13:55;5.78;;;3.90;;
20391;SDS011;10355;53.688;10.078;2023-09-07T08:16:39;6.28;;;4.00;;
20391;SDS011;10355;53.688;10.078;2023-09-07T08:19:22;5.65;;;3.95;;
20391;SDS011;10355;53.688;10.078;2023-09-07T08:22:06;5.63;;;3.50;;
20391;SDS011;10355;53.688;10.078;2023-09-07T08:24:50;5.80;;;4.07;;
20391;SDS011;10355;53.688;10.078;2023-09-07T08:30:33;5.90;;;3.17;;
20391;SDS011;10355;53.688;10.078;2023-09-07T08:33:16;4.70;;;3.28;;
20391;SDS011;10355;53.688;10.078;2023-09-07T08:35:59;4.93;;;3.30;;
20391;SDS011;10355;53.688;10.078;2023-09-07T08:38:42;5.70;;;3.63;;
20391;SDS011;10355;53.688;10.078;2023-09-07T08:41:25;6.40;;;3.80;;
20391;SDS011;10355;53.688;10.078;2023-09-07T08:44:09;5.47;;;3.75;;
20391;SDS011;10355;53.688;10.078;2023-09-07T08:46:53;3.85;;;3.08;;
20391;SDS011;10355;53.688;10.078;2023-09-07T08:49:37;4.50;;;3.53;;
20391;SDS011;10355;53.688;10.078;2023-09-07T08:52:20;6.47;;;3.60;;
20391;SDS011;10355;53.688;10.078;2023-09-07T08:55:03;4.90;;;3.30;;
20391;SDS011;10355;53.688;10.078;2023-09-07T08:57:48;4.88;;;3.20;;
20391;SDS011;10355;53.688;10.078;2023-09-07T09:00:31;5.38;;;3.55;;
20391;SDS011;10355;53.688;10.078;2023-09-07T09:03:16;4.75;;;3.28;;
20391;SDS011;10355;53.688;10.078;2023-09-07T09:09:10;4.22;;;3.50;;
20391;SDS011;10355;53.688;10.078;2023-09-07T09:11:55;8.32;;;3.67;;
20391;SDS011;10355;53.688;10.078;2023-09-07T09:14:38;2.70;;;1.52;;
20391;SDS011;10355;53.688;10.078;2023-09-07T09:20:26;1.00;;;0.68;;
20391;SDS011;10355;53.688;10.078;2023-09-07T09:23:09;0.63;;;0.50;;
20391;SDS011;10355;53.688;10.078;2023-09-07T09:25:54;0.82;;;0.68;;
20391;SDS011;10355;53.688;10.078;2023-09-07T09:31:33;0.90;;;0.50;;
20391;SDS011;10355;53.688;10.078;2023-09-07T09:34:17;0.70;;;0.43;;
20391;SDS011;10355;53.688;10.078;2023-09-07T09:37:01;0.65;;;0.50;;
20391;SDS011;10355;53.688;10.078;2023-09-07T09:39:47;0.55;;;0.50;;
20391;SDS011;10355;53.688;10.078;2023-09-07T09:42:31;0.50;;;0.50;;
20391;SDS011;10355;53.688;10.078;2023-09-07T09:45:14;0.73;;;0.70;;
20391;SDS011;10355;53.688;10.078;2023-09-07T09:47:57;0.90;;;0.60;;
20391;SDS011;10355;53.688;10.078;2023-09-07T09:50:41;0.70;;;0.60;;
20391;SDS011;10355;53.688;10.078;2023-09-07T09:53:27;0.70;;;0.60;;
20391;SDS011;10355;53.688;10.078;2023-09-07T09:56:10;0.68;;;0.60;;
20391;SDS011;10355;53.688;10.078;2023-09-07T09:58:53;0.80;;;0.70;;
20391;SDS011;10355;53.688;10.078;2023-09-07T10:01:37;0.80;;;0.70;;
20391;SDS011;10355;53.688;10.078;2023-09-07T10:04:23;0.95;;;0.85;;
20391;SDS011;10355;53.688;10.078;2023-09-07T10:07:06;0.50;;;0.50;;
20391;SDS011;10355;53.688;10.078;2023-09-07T10:09:50;0.55;;;0.50;;
20391;SDS011;10355;53.688;10.078;2023-09-07T10:12:39;0.52;;;0.52;;
20391;SDS011;10355;53.688;10.078;2023-09-07T10:15:22;0.60;;;0.60;;
20391;SDS011;10355;53.688;10.078;2023-09-07T10:18:06;0.70;;;0.65;;
20391;SDS011;10355;53.688;10.078;2023-09-07T10:20:50;0.65;;;0.55;;
20391;SDS011;10355;53.688;10.078;2023-09-07T10:23:34;0.52;;;0.52;;
20391;SDS011;10355;53.688;10.078;2023-09-07T10:26:19;0.77;;;0.63;;
20391;SDS011;10355;53.688;10.078;2023-09-07T10:29:03;0.60;;;0.50;;
20391;SDS011;10355;53.688;10.078;2023-09-07T10:31:50;0.60;;;0.52;;
20391;SDS011;10355;53.688;10.078;2023-09-07T10:34:35;0.50;;;0.50;;
20391;SDS011;10355;53.688;10.078;2023-09-07T10:37:19;0.60;;;0.60;;
20391;SDS011;10355;53.688;10.078;2023-09-07T10:40:02;0.52;;;0.52;;
20391;SDS011;10355;53.688;10.078;2023-09-07T10:42:47;0.60;;;0.55;;
20391;SDS011;10355;53.688;10.078;2023-09-07T10:45:30;0.60;;;0.50;;
20391;SDS011;10355;53.688;10.078;2023-09-07T10:48:12;0.47;;;0.45;;
20391;SDS011;10355;53.688;10.078;2023-09-07T10:50:55;0.57;;;0.57;;
20391;SDS011;10355;53.688;10.078;2023-09-07T10:53:38;0.45;;;0.45;;
20391;SDS011;10355;53.688;10.078;2023-09-07T10:56:24;0.40;;;0.40;;
20391;SDS011;10355;53.688;10.078;2023-09-07T10:59:08;0.55;;;0.50;;
20391;SDS011;10355;53.688;10.078;2023-09-07T11:01:51;1.30;;;0.75;;
20391;SDS011;10355;53.688;10.078;2023-09-07T11:04:34;0.80;;;0.60;;
20391;SDS011;10355;53.688;10.078;2023-09-07T11:07:17;0.50;;;0.43;;
20391;SDS011;10355;53.688;10.078;2023-09-07T11:10:00;0.60;;;0.60;;
20391;SDS011;10355;53.688;10.078;2023-09-07T11:12:46;0.50;;;0.50;;
20391;SDS011;10355;53.688;10.078;2023-09-07T11:15:30;0.65;;;0.55;;
20391;SDS011;10355;53.688;10.078;2023-09-07T11:18:19;0.63;;;0.55;;
20391;SDS011;10355;53.688;10.078;2023-09-07T11:21:02;0.45;;;0.40;;
20391;SDS011;10355;53.688;10.078;2023-09-07T11:23:45;0.40;;;0.40;;
20391;SDS011;10355;53.688;10.078;2023-09-07T11:26:29;0.70;;;0.50;;
20391;SDS011;10355;53.688;10.078;2023-09-07T11:29:13;0.77;;;0.68;;
20391;SDS011;10355;53.688;10.078;2023-09-07T11:32:06;0.55;;;0.55;;
20391;SDS011;10355;53.688;10.078;2023-09-07T11:34:51;0.30;;;0.30;;
20391;SDS011;10355;53.688;10.078;2023-09-07T11:37:39;0.63;;;0.50;;
20391;SDS011;10355;53.688;10.078;2023-09-07T11:40:22;0.70;;;0.50;;
20391;SDS011;10355;53.688;10.078;2023-09-07T11:43:07;0.65;;;0.60;;
20391;SDS011;10355;53.688;10.078;2023-09-07T11:45:50;0.70;;;0.60;;
20391;SDS011;10355;53.688;10.078;2023-09-07T11:48:35;0.40;;;0.40;;
20391;SDS011;10355;53.688;10.078;2023-09-07T11:51:18;0.60;;;0.50;;
20391;SDS011;10355;53.688;10.078;2023-09-07T11:54:03;0.45;;;0.40;;
20391;SDS011;10355;53.688;10.078;2023-09-07T11:56:47;0.43;;;0.43;;
20391;SDS011;10355;53.688;10.078;2023-09-07T11:59:30;0.40;;;0.40;;
20391;SDS011;10355;53.688;10.078;2023-09-07T12:02:33;0.70;;;0.43;;
20391;SDS011;10355;53.688;10.078;2023-09-07T12:05:19;0.60;;;0.40;;
20391;SDS011;10355;53.688;10.078;2023-09-07T12:08:03;1.13;;;0.50;;
20391;SDS011;10355;53.688;10.078;2023-09-07T12:10:46;0.80;;;0.50;;
20391;SDS011;10355;53.688;10.078;2023-09-07T12:13:30;0.70;;;0.43;;
20391;SDS011;10355;53.688;10.078;2023-09-07T12:16:13;0.40;;;0.40;;
20391;SDS011;10355;53.688;10.078;2023-09-07T12:18:56;0.60;;;0.50;;
20391;SDS011;10355;53.688;10.078;2023-09-07T12:21:40;0.30;;;0.30;;
20391;SDS011;10355;53.688;10.078;2023-09-07T12:24:23;0.40;;;0.40;;
20391;SDS011;10355;53.688;10.078;2023-09-07T12:27:06;0.40;;;0.40;;
20391;SDS011;10355;53.688;10.078;2023-09-07T12:29:58;0.38;;;0.30;;
20391;SDS011;10355;53.688;10.078;2023-09-07T12:32:41;0.73;;;0.50;;
20391;SDS011;10355;53.688;10.078;2023-09-07T12:35:25;0.50;;;0.40;;
20391;SDS011;10355;53.688;10.078;2023-09-07T12:38:10;0.60;;;0.40;;
20391;SDS011;10355;53.688;10.078;2023-09-07T12:40:59;0.60;;;0.45;;
20391;SDS011;10355;53.688;10.078;2023-09-07T12:43:42;0.52;;;0.43;;
20391;SDS011;10355;53.688;10.078;2023-09-07T12:46:25;0.47;;;0.40;;
20391;SDS011;10355;53.688;10.078;2023-09-07T12:49:09;0.70;;;0.50;;
20391;SDS011;10355;53.688;10.078;2023-09-07T12:51:52;1.05;;;0.70;;
20391;SDS011;10355;53.688;10.078;2023-09-07T12:54:37;0.50;;;0.43;;
20391;SDS011;10355;53.688;10.078;2023-09-07T12:57:21;0.52;;;0.43;;
20391;SDS011;10355;53.688;10.078;2023-09-07T13:00:04;0.40;;;0.40;;
20391;SDS011;10355;53.688;10.078;2023-09-07T13:02:48;0.60;;;0.43;;
20391;SDS011;10355;53.688;10.078;2023-09-07T13:05:32;0.68;;;0.55;;
20391;SDS011;10355;53.688;10.078;2023-09-07T13:08:16;0.30;;;0.30;;
20391;SDS011;10355;53.688;10.078;2023-09-07T13:11:01;0.43;;;0.40;;
20391;SDS011;10355;53.688;10.078;2023-09-07T13:13:44;0.40;;;0.40;;
20391;SDS011;10355;53.688;10.078;2023-09-07T13:16:28;0.68;;;0.50;;
20391;SDS011;10355;53.688;10.078;2023-09-07T13:19:11;0.40;;;0.40;;
20391;SDS011;10355;53.688;10.078;2023-09-07T13:21:54;0.50;;;0.45;;
20391;SDS011;10355;53.688;10.078;2023-09-07T13:24:37;0.60;;;0.60;;
20391;SDS011;10355;53.688;10.078;2023-09-07T13:27:22;0.50;;;0.47;;
20391;SDS011;10355;53.688;10.078;2023-09-07T13:30:07;0.57;;;0.38;;
20391;SDS011;10355;53.688;10.078;2023-09-07T13:32:51;0.43;;;0.32;;
20391;SDS011;10355;53.688;10.078;2023-09-07T13:35:34;0.50;;;0.30;;
20391;SDS011;10355;53.688;10.078;2023-09-07T13:38:18;0.88;;;0.35;;
20391;SDS011;10355;53.688;10.078;2023-09-07T13:41:03;0.47;;;0.47;;
20391;SDS011;10355;53.688;10.078;2023-09-07T13:43:47;1.00;;;0.47;;
20391;SDS011;10355;53.688;10.078;2023-09-07T13:46:29;0.50;;;0.50;;
20391;SDS011;10355;53.688;10.078;2023-09-07T13:49:12;0.30;;;0.30;;
20391;SDS011;10355;53.688;10.078;2023-09-07T13:51:55;0.60;;;0.40;;
20391;SDS011;10355;53.688;10.078;2023-09-07T13:54:38;0.73;;;0.50;;
20391;SDS011;10355;53.688;10.078;2023-09-07T13:57:21;0.35;;;0.35;;
20391;SDS011;10355;53.688;10.078;2023-09-07T14:00:06;0.63;;;0.50;;
20391;SDS011;10355;53.688;10.078;2023-09-07T14:02:48;0.40;;;0.30;;
20391;SDS011;10355;53.688;10.078;2023-09-07T14:05:31;0.47;;;0.40;;
20391;SDS011;10355;53.688;10.078;2023-09-07T14:08:14;0.30;;;0.30;;
20391;SDS011;10355;53.688;10.078;2023-09-07T14:10:57;0.45;;;0.40;;
20391;SDS011;10355;53.688;10.078;2023-09-07T14:13:41;0.40;;;0.40;;
20391;SDS011;10355;53.688;10.078;2023-09-07T14:16:25;0.30;;;0.30;;
20391;SDS011;10355;53.688;10.078;2023-09-07T14:19:08;0.70;;;0.50;;
20391;SDS011;10355;53.688;10.078;2023-09-07T14:21:51;0.57;;;0.50;;
20391;SDS011;10355;53.688;10.078;2023-09-07T14:24:34;0.38;;;0.30;;
20391;SDS011;10355;53.688;10.078;2023-09-07T14:27:16;0.40;;;0.35;;
20391;SDS011;10355;53.688;10.078;2023-09-07T14:29:59;0.57;;;0.43;;
20391;SDS011;10355;53.688;10.078;2023-09-07T14:32:43;0.30;;;0.30;;
20391;SDS011;10355;53.688;10.078;2023-09-07T14:35:27;0.30;;;0.30;;
20391;SDS011;10355;53.688;10.078;2023-09-07T14:38:09;0.57;;;0.45;;
20391;SDS011;10355;53.688;10.078;2023-09-07T14:40:52;0.40;;;0.40;;
20391;SDS011;10355;53.688;10.078;2023-09-07T14:43:36;0.40;;;0.40;;
20391;SDS011;10355;53.688;10.078;2023-09-07T14:46:19;0.30;;;0.30;;
20391;SDS011;10355;53.688;10.078;2023-09-07T14:49:05;0.40;;;0.40;;
20391;SDS011;10355;53.688;10.078;2023-09-07T14:51:48;0.55;;;0.32;;
20391;SDS011;10355;53.688;10.078;2023-09-07T14:54:30;0.50;;;0.30;;
20391;SDS011;10355;53.688;10.078;2023-09-07T14:57:13;0.35;;;0.35;;
20391;SDS011;10355;53.688;10.078;2023-09-07T14:59:59;0.45;;;0.45;;
20391;SDS011;10355;53.688;10.078;2023-09-07T15:02:42;0.43;;;0.40;;
20391;SDS011;10355;53.688;10.078;2023-09-07T15:05:26;0.30;;;0.30;;
20391;SDS011;10355;53.688;10.078;2023-09-07T15:08:10;0.40;;;0.40;;
20391;SDS011;10355;53.688;10.078;2023-09-07T15:10:53;0.40;;;0.40;;
20391;SDS011;10355;53.688;10.078;2023-09-07T15:13:35;0.30;;;0.30;;
20391;SDS011;10355;53.688;10.078;2023-09-07T15:16:18;0.20;;;0.20;;
20391;SDS011;10355;53.688;10.078;2023-09-07T15:19:01;0.50;;;0.30;;
20391;SDS011;10355;53.688;10.078;2023-09-07T15:21:45;0.30;;;0.30;;
20391;SDS011;10355;53.688;10.078;2023-09-07T15:24:28;0.43;;;0.35;;
20391;SDS011;10355;53.688;10.078;2023-09-07T15:27:11;0.25;;;0.25;;
20391;SDS011;10355;53.688;10.078;2023-09-07T15:29:55;0.43;;;0.30;;
20391;SDS011;10355;53.688;10.078;2023-09-07T15:32:38;0.35;;;0.30;;
20391;SDS011;10355;53.688;10.078;2023-09-07T15:35:21;0.30;;;0.22;;
20391;SDS011;10355;53.688;10.078;2023-09-07T15:38:05;0.50;;;0.40;;
20391;SDS011;10355;53.688;10.078;2023-09-07T15:40:48;0.50;;;0.40;;
20391;SDS011;10355;53.688;10.078;2023-09-07T15:43:31;0.30;;;0.30;;
20391;SDS011;10355;53.688;10.078;2023-09-07T15:46:14;0.32;;;0.32;;
20391;SDS011;10355;53.688;10.078;2023-09-07T15:48:57;0.30;;;0.30;;
20391;SDS011;10355;53.688;10.078;2023-09-07T15:51:40;0.40;;;0.40;;
20391;SDS011;10355;53.688;10.078;2023-09-07T15:54:25;0.50;;;0.47;;
20391;SDS011;10355;53.688;10.078;2023-09-07T15:57:07;0.30;;;0.30;;
20391;SDS011;10355;53.688;10.078;2023-09-07T15:59:50;0.47;;;0.40;;
20391;SDS011;10355;53.688;10.078;2023-09-07T16:02:33;0.32;;;0.30;;
20391;SDS011;10355;53.688;10.078;2023-09-07T16:05:16;0.40;;;0.40;;
20391;SDS011;10355;53.688;10.078;2023-09-07T16:07:59;0.40;;;0.22;;
20391;SDS011;10355;53.688;10.078;2023-09-07T16:10:43;0.30;;;0.30;;
20391;SDS011;10355;53.688;10.078;2023-09-07T16:13:26;0.28;;;0.25;;
20391;SDS011;10355;53.688;10.078;2023-09-07T16:16:09;0.30;;;0.25;;
20391;SDS011;10355;53.688;10.078;2023-09-07T16:18:52;0.25;;;0.25;;
20391;SDS011;10355;53.688;10.078;2023-09-07T16:21:35;0.30;;;0.30;;